Broad Blunsdon, United Kingdom
Current Conditions -  °F | °C
As of 9:58 PM on Wednesday 28 Jan 2015 (Local Time) from EGVA Reporting Station
Clear Clear  
Wind Chill: -4°   Ceiling: Unl
Heat Index:   Visibility: 6mi
Dew Point: -1°   Wind: 17mph
Humidity: 80%   Direction: 250°WSW
Pressure: 29.53"   Gusts: NA
Location:  51.61°N, 1.78°W
Report Text: EGVA 282158Z AUTO 25015KT 9999 CLR 02/M01 A2953 RMK AO2 SLP006 T00201011 $
Loading
Personal Weather Stations






























Interactive Weather Map New forecast layout! Learn more

10-Day Weather Forecast

Advertisements
Track Severe Weather on mobile